Dunedin, New Zealand
Current Conditions -  °F | °C
As of 7:00 PM on Friday 31 Oct 2014 (Local Time) from NZCH Reporting Station
Scattered Clouds Scattered Clouds  
Wind Chill: 50°   Ceiling: Unl
Heat Index: 50°   Visibility: 6mi
Dew Point: 45°   Wind: 9mph
Humidity: 82%   Direction: 40°NE
Pressure: 29.74"   Gusts: NA
Location:  45.52°S, 170.3°E
Report Text: NZCH 310700Z AUTO 04008KT 9999 SCT015/// 10/07 Q1007 NOSIG
Loading
Personal Weather Stations






























Interactive Weather Map
Tropical Storm Tracking
New forecast layout! Learn more

10-Day Weather Forecast

Advertisements
Track Severe Weather on mobile